Aviation Digital Data Service (ADDS)

Output produced by METARs form (1815 UTC 19 April 2019)
found at http://www.aviationweather.gov/metar/data/
 
Forecast for: KSMF (SACRAMENTO/METRO, CA, US)
Text: KSMF 191738Z 1918/2018 VRB04KT P6SM BKN250
Forecast period: 1800 to 2300 UTC 19 April 2019
Forecast type: FROM: standard forecast or significant change
Winds: variable direction winds at 5 MPH (4 knots; 2.1 m/s)
Visibility: 6 or more miles 10+ km)
Ceiling: 25000 feet AGL
Clouds: broken clouds at 25000 feet AGL
Weather: no significant weather forecast for this period
Text: FM192300 19007KT P6SM FEW250
Forecast period: 2300 UTC 19 April 2019 to 1300 UTC 20 April 2019
Forecast type: FROM: standard forecast or significant change
Winds: from the S (190 degrees) at 8 MPH (7 knots; 3.6 m/s)
Visibility: 6 or more miles 10+ km)
Ceiling: at least 12,000 feet AGL
Clouds: few clouds at 25000 feet AGL
Weather: no significant weather forecast for this period
Text: FM201300 16013KT P6SM BKN100 OVC250
Forecast period: 1300 to 1800 UTC 20 April 2019
Forecast type: FROM: standard forecast or significant change
Winds: from the SSE (160 degrees) at 15 MPH (13 knots; 6.7 m/s)
Visibility: 6 or more miles 10+ km)
Ceiling: 10000 feet AGL
Clouds: broken clouds at 10000 feet AGL
overcast cloud deck at 25000 feet AGL
Weather: no significant weather forecast for this period